Time;durP1;ratioP1;P1;durP2;ratioP2;P2;SDS_P1;SDS_P2;PMS_P1;PMS_P2;Temp;Humidity;BMP_temperature;BMP_pressure;BME280_temperature;BME280_humidity;BME280_pressure;Samples;Min_cycle;Max_cycle;Signal;HPM_P1;HPM_P2
2021/12/08 00:00:17;;;;;;;19.33;10.00;;;-0.20;99.90;;;;;;5132843;27;20108;-75
2021/12/08 00:02:44;;;;;;;;;;;-0.20;99.90;;;;;;5133151;27;20468;-76
2021/12/08 00:05:13;;;;;;;14.63;10.77;;;-0.20;99.90;;;;;;5132179;27;19992;-74
2021/12/08 00:07:41;;;;;;;15.23;11.57;;;-0.20;99.90;;;;;;5132722;27;20039;-75
2021/12/08 00:10:17;;;;;;;32.17;11.80;;;-0.30;99.90;;;;;;5133051;27;20111;-78
2021/12/08 00:13:03;;;;;;;13.27;5.93;;;-0.20;99.90;;;;;;5132735;27;20192;-76
2021/12/08 00:15:30;;;;;;;11.93;9.43;;;-0.20;99.90;;;;;;5132234;27;20519;-78
2021/12/08 00:17:57;;;;;;;20.73;12.17;;;-0.20;99.90;;;;;;5132512;27;20495;-76
2021/12/08 00:20:27;;;;;;;14.27;9.33;;;-0.30;99.90;;;;;;5132765;27;20494;-77
2021/12/08 00:22:55;;;;;;;19.47;10.80;;;-0.30;99.90;;;;;;5132627;27;20111;-76
2021/12/08 00:25:21;;;;;;;14.83;10.63;;;-0.30;99.90;;;;;;5132088;27;20043;-75
2021/12/08 00:27:48;;;;;;;15.17;10.77;;;-0.30;99.90;;;;;;5132516;27;20042;-75
2021/12/08 00:30:16;;;;;;;13.47;8.87;;;-0.30;99.90;;;;;;5132583;27;20039;-74
2021/12/08 00:32:43;;;;;;;12.73;9.83;;;-0.30;99.90;;;;;;5132556;27;20043;-75
2021/12/08 00:35:10;;;;;;;15.37;10.37;;;-0.30;99.90;;;;;;5131774;27;20039;-74
2021/12/08 00:37:37;;;;;;;24.00;11.20;;;-0.30;99.90;;;;;;5132639;27;20043;-75
2021/12/08 00:40:11;;;;;;;16.53;9.57;;;-0.30;99.90;;;;;;5132275;27;20096;-77
2021/12/08 00:42:38;;;;;;;19.23;13.77;;;-0.30;99.90;;;;;;5132442;27;20138;-77
2021/12/08 00:45:05;;;;;;;12.10;8.83;;;-0.30;99.90;;;;;;5132719;27;20047;-77
2021/12/08 00:47:32;;;;;;;22.00;12.83;;;-0.30;99.90;;;;;;5136163;27;20171;-76
2021/12/08 00:49:58;;;;;;;13.10;8.90;;;-0.30;99.90;;;;;;5136390;27;20100;-77
2021/12/08 00:52:28;;;;;;;13.47;10.53;;;-0.30;99.90;;;;;;5136353;27;20107;-73
2021/12/08 00:54:55;;;;;;;23.93;13.73;;;-0.30;99.90;;;;;;5135525;27;20047;-74
2021/12/08 00:57:23;;;;;;;21.30;11.17;;;-0.30;99.90;;;;;;5136387;27;20043;-74
2021/12/08 00:59:50;;;;;;;24.13;13.13;;;-0.30;99.90;;;;;;5136502;27;20453;-75
2021/12/08 01:02:17;;;;;;;19.50;11.93;;;-0.40;99.90;;;;;;5136229;27;20255;-74
2021/12/08 01:04:44;;;;;;;17.67;10.90;;;-0.30;99.90;;;;;;5135560;27;20050;-73
2021/12/08 01:07:11;;;;;;;22.63;11.37;;;-0.30;99.90;;;;;;5136091;27;20080;-75
2021/12/08 01:09:38;;;;;;;20.93;12.23;;;-0.30;99.90;;;;;;5136154;27;20096;-75
2021/12/08 01:12:06;;;;;;;15.07;10.73;;;-0.40;99.90;;;;;;5136080;27;20071;-74
2021/12/08 01:14:35;;;;;;;21.73;12.93;;;-0.40;99.90;;;;;;5135480;27;20456;-74
2021/12/08 01:17:03;;;;;;;16.57;12.00;;;-0.40;99.90;;;;;;5135839;27;20043;-75
2021/12/08 01:19:30;;;;;;;11.03;7.87;;;-0.40;99.90;;;;;;5135688;27;20055;-75
2021/12/08 01:21:57;;;;;;;14.67;10.63;;;-0.30;99.90;;;;;;5135913;27;20077;-76
2021/12/08 01:24:24;;;;;;;14.67;10.17;;;-0.40;99.90;;;;;;5135258;27;20104;-76
2021/12/08 01:26:50;;;;;;;23.43;12.40;;;-0.40;99.90;;;;;;5135754;27;20043;-76
2021/12/08 01:29:17;;;;;;;8.40;7.60;;;-0.40;99.90;;;;;;5135658;27;20051;-75
2021/12/08 01:31:45;;;;;;;18.27;12.83;;;-0.40;99.90;;;;;;5135426;27;20555;-76
2021/12/08 01:34:13;;;;;;;18.03;10.60;;;-0.40;99.90;;;;;;5135017;27;20464;-77
2021/12/08 01:36:40;;;;;;;21.00;13.63;;;-0.40;99.90;;;;;;5135349;27;20578;-73
2021/12/08 01:39:08;;;;;;;13.50;11.13;;;-0.50;99.90;;;;;;5135864;27;20047;-74
2021/12/08 01:41:35;;;;;;;18.57;12.87;;;-0.40;99.90;;;;;;5135850;27;20083;-74
2021/12/08 01:46:49;;;;;;;13.63;10.00;;;-0.50;99.90;;;;;;5135418;27;20422;-76
2021/12/08 01:49:16;;;;;;;16.50;11.33;;;-0.50;99.90;;;;;;5135440;27;20096;-77
2021/12/08 01:51:42;;;;;;;19.77;10.30;;;-0.50;99.90;;;;;;5135556;27;20039;-75
2021/12/08 01:54:09;;;;;;;15.10;9.97;;;-0.40;99.90;;;;;;5134381;27;20092;-74
2021/12/08 01:56:36;;;;;;;20.20;13.00;;;-0.50;99.90;;;;;;5134421;27;20150;-73
2021/12/08 01:59:05;;;;;;;10.63;8.67;;;-0.50;99.90;;;;;;5135055;27;20039;-74
2021/12/08 02:01:36;;;;;;;19.40;8.23;;;-0.50;99.90;;;;;;5134901;27;20043;-74
2021/12/08 02:04:06;;;;;;;15.33;11.73;;;-0.50;99.90;;;;;;5134437;27;20047;-74
2021/12/08 02:06:33;;;;;;;13.40;9.03;;;-0.50;99.90;;;;;;5135231;27;20078;-75
2021/12/08 02:09:00;;;;;;;19.73;12.30;;;-0.50;99.90;;;;;;5135020;27;20043;-76
2021/12/08 02:11:27;;;;;;;17.97;10.10;;;-0.50;99.90;;;;;;5134708;27;20039;-73
2021/12/08 02:14:00;;;;;;;12.43;6.57;;;-0.60;99.90;;;;;;5134890;27;20080;-74
2021/12/08 02:16:27;;;;;;;12.40;11.20;;;-0.60;99.90;;;;;;5133886;27;20755;-74
2021/12/08 02:18:54;;;;;;;12.73;9.57;;;-0.50;99.90;;;;;;5134687;27;20487;-75
2021/12/08 02:21:25;;;;;;;20.87;10.30;;;-0.60;99.90;;;;;;5134730;27;20387;-76
2021/12/08 02:23:53;;;;;;;17.85;13.02;;;-0.60;99.90;;;;;;5134690;27;20051;-76
2021/12/08 02:26:20;;;;;;;18.47;11.87;;;-0.60;99.90;;;;;;5133733;27;20507;-77
2021/12/08 02:28:47;;;;;;;15.30;10.20;;;-0.50;99.90;;;;;;5134619;27;20384;-74
2021/12/08 02:31:18;;;;;;;15.97;10.90;;;-0.50;99.90;;;;;;5134572;27;20054;-74
2021/12/08 02:47:42;;;;;;;20.47;10.60;;;-0.60;99.90;;;;;;5134243;27;20054;-73
2021/12/08 02:50:11;;;;;;;30.07;12.43;;;-0.60;99.90;;;;;;5134448;27;20499;-75
2021/12/08 02:52:39;;;;;;;16.33;8.53;;;-0.60;99.90;;;;;;5134164;27;20583;-74
2021/12/08 02:55:08;;;;;;;13.87;9.43;;;-0.50;99.90;;;;;;5133586;27;20042;-75
2021/12/08 02:57:35;;;;;;;15.27;8.70;;;-0.60;99.90;;;;;;5134029;27;20634;-74
2021/12/08 03:00:04;;;;;;;14.03;9.00;;;-0.50;99.90;;;;;;5134319;27;20077;-73
2021/12/08 03:02:31;;;;;;;9.93;7.40;;;-0.50;99.90;;;;;;5134026;27;20067;-73
2021/12/08 03:04:58;;;;;;;23.63;10.23;;;-0.60;99.90;;;;;;5133509;27;20047;-74
2021/12/08 03:07:24;;;;;;;14.73;9.03;;;-0.60;99.90;;;;;;5133945;27;20045;-75
2021/12/08 03:09:53;;;;;;;12.70;8.73;;;-0.60;99.90;;;;;;5133840;27;20379;-75
2021/12/08 03:12:28;;;;;;;17.57;11.50;;;-0.60;99.90;;;;;;5133513;27;20138;-76
2021/12/08 03:14:55;;;;;;;15.03;10.17;;;-0.60;99.90;;;;;;5133529;27;20043;-75
2021/12/08 03:17:22;;;;;;;23.30;11.23;;;-0.60;99.90;;;;;;5133932;27;20046;-74
2021/12/08 03:19:48;;;;;;;15.60;11.50;;;-0.60;99.90;;;;;;5133531;27;20051;-73
2021/12/08 03:22:15;;;;;;;24.50;10.90;;;-0.60;99.90;;;;;;5133532;27;20479;-73
2021/12/08 03:24:45;;;;;;;24.03;12.57;;;-0.50;99.90;;;;;;5132922;27;20101;-75
2021/12/08 03:27:16;;;;;;;15.90;10.80;;;-0.60;99.90;;;;;;5133532;27;20134;-76
2021/12/08 03:29:49;;;;;;;20.35;12.07;;;-0.50;99.90;;;;;;5133462;27;20039;-75
2021/12/08 03:32:28;;;;;;;12.73;9.53;;;-0.60;99.90;;;;;;5133410;27;20384;-76
2021/12/08 03:34:55;;;;;;;7.57;5.97;;;-0.60;99.90;;;;;;5132845;27;20104;-76
2021/12/08 03:37:24;;;;;;;13.23;8.77;;;-0.60;99.90;;;;;;5133188;27;20050;-74
2021/12/08 03:39:51;;;;;;;18.33;9.60;;;-0.60;99.90;;;;;;5133160;27;20658;-75
2021/12/08 03:42:23;;;;;;;16.97;12.37;;;-0.60;99.90;;;;;;5133305;27;20051;-77
2021/12/08 03:44:53;;;;;;;15.15;9.18;;;-0.50;99.90;;;;;;5132512;27;20046;-78
2021/12/08 03:47:26;;;;;;;16.07;7.63;;;-0.50;99.90;;;;;;5133111;27;20043;-76
2021/12/08 03:49:53;;;;;;;16.63;10.90;;;-0.50;99.90;;;;;;5133128;27;20047;-75
2021/12/08 03:52:20;;;;;;;19.80;13.53;;;-0.50;99.90;;;;;;5133271;27;20047;-75
2021/12/08 03:54:46;;;;;;;18.80;12.73;;;-0.50;99.90;;;;;;5132266;27;20051;-76
2021/12/08 03:57:13;;;;;;;18.40;10.13;;;-0.50;99.90;;;;;;5133325;27;20043;-74
2021/12/08 03:59:41;;;;;;;15.03;10.70;;;-0.50;99.90;;;;;;5132960;27;20051;-75
2021/12/08 04:02:08;;;;;;;15.93;10.33;;;-0.50;99.90;;;;;;5132768;27;20120;-75
2021/12/08 04:04:43;;;;;;;28.40;14.83;;;-0.50;99.90;;;;;;5131902;27;20047;-75
2021/12/08 04:07:12;;;;;;;15.77;10.93;;;-0.50;99.90;;;;;;5132724;27;20051;-76
2021/12/08 04:09:40;;;;;;;11.83;9.50;;;-0.50;99.90;;;;;;5132661;27;20483;-75
2021/12/08 04:12:08;;;;;;;20.27;12.77;;;-0.50;99.90;;;;;;5132935;27;20046;-74
2021/12/08 04:14:40;;;;;;;26.03;12.20;;;-0.50;99.90;;;;;;5132503;27;20051;-75
2021/12/08 04:17:11;;;;;;;14.65;9.50;;;-0.50;99.90;;;;;;5132925;27;20047;-74
2021/12/08 04:19:39;;;;;;;19.33;12.60;;;-0.50;99.90;;;;;;5132559;27;20092;-75
2021/12/08 04:22:16;;;;;;;22.47;11.37;;;-0.50;99.90;;;;;;5132733;27;20043;-75
2021/12/08 04:24:45;;;;;;;16.73;9.57;;;-0.40;99.90;;;;;;5132695;27;20430;-75
2021/12/08 04:27:17;;;;;;;16.80;10.73;;;-0.50;99.90;;;;;;5133357;27;20127;-74
2021/12/08 04:29:45;;;;;;;17.13;11.13;;;-0.50;99.90;;;;;;5132812;27;20039;-74
2021/12/08 04:32:15;;;;;;;19.57;12.40;;;-0.50;99.90;;;;;;5132744;27;20047;-75
2021/12/08 04:34:45;;;;;;;14.73;9.70;;;-0.40;99.90;;;;;;5131897;27;20056;-74
2021/12/08 04:37:19;;;;;;;12.90;10.20;;;-0.40;99.90;;;;;;5132464;27;20050;-74
2021/12/08 04:39:52;;;;;;;19.87;11.13;;;-0.40;99.90;;;;;;5132312;27;20043;-76
2021/12/08 04:42:28;;;;;;;14.50;9.60;;;-0.40;99.90;;;;;;5132762;27;20048;-75
2021/12/08 04:45:03;;;;;;;15.73;11.63;;;-0.50;99.90;;;;;;5131752;27;20051;-76
2021/12/08 04:47:35;;;;;;;11.93;9.13;;;-0.40;99.90;;;;;;5133703;27;20051;-73
2021/12/08 04:53:00;;;;;;;13.90;10.17;;;-0.50;99.90;;;;;;5133546;27;20118;-76
2021/12/08 05:01:28;;;;;;;20.23;12.13;;;-0.40;99.90;;;;;;5132443;27;20054;-76
2021/12/08 05:04:29;;;;;;;8.20;7.40;;;-0.50;99.90;;;;;;5134018;27;20110;-77
2021/12/08 05:07:15;;;;;;;12.57;11.07;;;-0.40;99.90;;;;;;5132815;27;20055;-78
2021/12/08 05:09:43;;;;;;;14.07;10.30;;;-0.40;99.90;;;;;;5131964;27;20043;-71
2021/12/08 05:12:12;;;;;;;15.03;10.97;;;-0.50;99.90;;;;;;5131990;27;20471;-73
2021/12/08 05:14:43;;;;;;;22.43;13.17;;;-0.50;99.90;;;;;;5131924;27;20047;-76
2021/12/08 05:17:14;;;;;;;16.93;9.50;;;-0.40;99.90;;;;;;5131980;27;20517;-73
2021/12/08 05:19:44;;;;;;;14.82;10.57;;;-0.40;99.90;;;;;;5133036;27;20049;-76
2021/12/08 05:22:15;;;;;;;17.03;11.13;;;-0.40;99.90;;;;;;5132606;27;20047;-74
2021/12/08 05:24:45;;;;;;;20.17;11.80;;;-0.40;99.90;;;;;;5130979;27;20073;-75
2021/12/08 05:27:16;;;;;;;14.30;10.17;;;-0.40;99.90;;;;;;5133348;27;20044;-73
2021/12/08 05:29:47;;;;;;;16.33;10.13;;;-0.40;99.90;;;;;;5131821;27;20043;-71
2021/12/08 05:32:13;;;;;;;15.73;10.70;;;-0.40;99.90;;;;;;5132648;27;20296;-71
2021/12/08 05:34:42;;;;;;;16.43;8.10;;;-0.40;99.90;;;;;;5134829;27;20043;-72
2021/12/08 05:37:12;;;;;;;23.17;12.30;;;-0.50;99.90;;;;;;5135404;27;20122;-71
2021/12/08 05:39:39;;;;;;;14.23;8.47;;;-0.50;99.90;;;;;;5135945;27;20163;-73
2021/12/08 05:42:09;;;;;;;19.77;13.23;;;-0.40;99.90;;;;;;5135267;27;20047;-72
2021/12/08 05:44:36;;;;;;;9.67;8.47;;;-0.40;99.90;;;;;;5134324;27;20116;-72
2021/12/08 05:47:07;;;;;;;20.23;8.20;;;-0.40;99.90;;;;;;5135218;27;20047;-70
2021/12/08 05:49:34;;;;;;;10.90;9.82;;;-0.40;99.90;;;;;;5135365;27;20054;-73
2021/12/08 05:52:02;;;;;;;18.17;12.67;;;-0.40;99.90;;;;;;5135302;27;20471;-73
2021/12/08 05:54:33;;;;;;;13.93;12.27;;;-0.40;99.90;;;;;;5134430;27;20062;-74
2021/12/08 05:57:03;;;;;;;22.13;11.80;;;-0.40;99.90;;;;;;5134951;27;20453;-74
2021/12/08 05:59:30;;;;;;;15.40;8.37;;;-0.40;99.90;;;;;;5135291;27;20039;-73
2021/12/08 06:02:02;;;;;;;20.97;12.20;;;-0.50;99.90;;;;;;5135424;27;20039;-73
2021/12/08 06:04:31;;;;;;;8.50;6.38;;;-0.50;99.90;;;;;;5134629;27;20204;-71
2021/12/08 06:06:59;;;;;;;16.70;10.17;;;-0.50;99.90;;;;;;5134672;27;20088;-71
2021/12/08 06:09:30;;;;;;;17.73;11.80;;;-0.60;99.90;;;;;;5134601;27;20101;-70
2021/12/08 06:11:58;;;;;;;20.33;15.53;;;-0.50;99.90;;;;;;5134671;27;20479;-71
2021/12/08 06:14:31;;;;;;;19.17;11.50;;;-0.60;99.90;;;;;;5134195;27;20039;-73
2021/12/08 06:16:59;;;;;;;21.67;10.67;;;-0.60;99.90;;;;;;5134660;27;20088;-73
2021/12/08 06:19:25;;;;;;;18.50;12.10;;;-0.60;99.90;;;;;;5134820;27;20096;-74
2021/12/08 06:21:52;;;;;;;18.60;12.30;;;-0.60;99.90;;;;;;5134419;27;20043;-75
2021/12/08 06:24:21;;;;;;;22.97;12.40;;;-0.60;99.90;;;;;;5134091;27;20190;-74
2021/12/08 06:26:50;;;;;;;19.27;12.43;;;-0.60;99.90;;;;;;5134648;27;20096;-73
2021/12/08 06:29:18;;;;;;;18.63;12.67;;;-0.50;99.90;;;;;;5134149;27;20411;-74
2021/12/08 06:31:46;;;;;;;15.53;9.57;;;-0.50;99.90;;;;;;5134161;27;20056;-74
2021/12/08 06:34:13;;;;;;;19.63;12.53;;;-0.50;99.90;;;;;;5134219;27;20406;-74
2021/12/08 06:36:43;;;;;;;20.67;11.07;;;-0.60;99.90;;;;;;5134193;27;20050;-72
2021/12/08 06:39:15;;;;;;;20.13;12.00;;;-0.60;99.90;;;;;;5134111;27;20483;-71
2021/12/08 06:41:48;;;;;;;13.40;10.30;;;-0.50;99.90;;;;;;5134220;27;20051;-71
2021/12/08 06:44:19;;;;;;;17.17;10.90;;;-0.60;99.90;;;;;;5133490;27;20047;-71
2021/12/08 06:46:47;;;;;;;23.10;13.95;;;-0.50;99.90;;;;;;5134247;27;20082;-71
2021/12/08 06:49:17;;;;;;;12.60;10.37;;;-0.50;99.90;;;;;;5134204;27;20066;-73
2021/12/08 06:51:46;;;;;;;17.40;10.60;;;-0.50;99.90;;;;;;5133842;27;20491;-74
2021/12/08 06:54:17;;;;;;;13.30;9.90;;;-0.50;99.90;;;;;;5133792;27;20486;-73
2021/12/08 06:56:47;;;;;;;12.77;10.90;;;-0.50;99.90;;;;;;5134028;27;20043;-71
2021/12/08 06:59:20;;;;;;;21.33;12.07;;;-0.50;99.90;;;;;;5133866;27;20301;-72
2021/12/08 07:01:58;;;;;;;24.63;12.30;;;-0.50;99.90;;;;;;5134022;27;20047;-72
2021/12/08 07:04:31;;;;;;;16.97;11.90;;;-0.50;99.90;;;;;;5133209;27;20058;-71
2021/12/08 07:07:03;;;;;;;20.83;14.03;;;-0.50;99.90;;;;;;5133709;27;20047;-73
2021/12/08 07:09:37;;;;;;;15.53;8.87;;;-0.50;99.90;;;;;;5133609;27;20059;-72
2021/12/08 07:12:08;;;;;;;15.23;11.63;;;-0.40;99.90;;;;;;5133536;27;20478;-71
2021/12/08 07:14:37;;;;;;;20.45;11.35;;;-0.40;99.90;;;;;;5132886;27;20495;-72
2021/12/08 07:17:08;;;;;;;16.60;12.30;;;-0.40;99.90;;;;;;5133739;27;20475;-72
2021/12/08 07:19:43;;;;;;;18.00;12.05;;;-0.40;99.90;;;;;;5134836;27;20509;-73
2021/12/08 07:22:13;;;;;;;20.07;10.63;;;-0.40;99.90;;;;;;5134674;27;20043;-73
2021/12/08 07:24:43;;;;;;;24.50;14.27;;;-0.40;99.90;;;;;;5133005;27;20092;-73
2021/12/08 07:27:13;;;;;;;22.90;12.50;;;-0.40;99.90;;;;;;5133233;27;20047;-72
2021/12/08 07:29:43;;;;;;;29.40;15.57;;;-0.40;99.90;;;;;;5133909;27;20047;-72
2021/12/08 07:32:17;;;;;;;19.03;12.87;;;-0.30;99.90;;;;;;5134006;27;20396;-72
2021/12/08 07:34:44;;;;;;;17.03;9.00;;;-0.30;99.90;;;;;;5132379;27;20441;-76
2021/12/08 07:37:15;;;;;;;17.07;10.37;;;-0.20;99.90;;;;;;5134012;27;20047;-76
2021/12/08 07:39:45;;;;;;;28.27;14.38;;;-0.20;99.90;;;;;;5136179;27;20051;-78
2021/12/08 07:42:19;;;;;;;35.63;13.70;;;-0.30;99.90;;;;;;5139054;27;20043;-77
2021/12/08 07:44:51;;;;;;;18.00;14.40;;;-0.30;99.90;;;;;;5136880;27;20047;-77
2021/12/08 07:47:21;;;;;;;18.40;13.00;;;-0.20;99.90;;;;;;5134453;27;20051;-76
2021/12/08 07:49:53;;;;;;;20.13;11.73;;;-0.20;99.90;;;;;;5133780;27;20055;-77
2021/12/08 07:52:23;;;;;;;27.90;11.83;;;-0.10;99.90;;;;;;5133542;27;20422;-73
2021/12/08 07:54:50;;;;;;;19.67;11.90;;;-0.10;99.90;;;;;;5131621;27;20043;-76
2021/12/08 07:57:20;;;;;;;18.60;10.53;;;-0.10;99.90;;;;;;5133437;27;20047;-74
2021/12/08 07:59:51;;;;;;;29.83;12.77;;;0.00;99.90;;;;;;5132681;27;20031;-75
2021/12/08 08:02:20;;;;;;;13.38;9.95;;;0.00;99.90;;;;;;5133048;27;20048;-75
2021/12/08 08:04:49;;;;;;;20.10;12.87;;;0.10;99.90;;;;;;5132354;27;20051;-73
2021/12/08 08:07:19;;;;;;;28.40;14.33;;;0.10;99.90;;;;;;5132733;27;20127;-75
2021/12/08 08:09:49;;;;;;;24.37;12.33;;;0.20;99.90;;;;;;5132526;27;20098;-73
2021/12/08 08:12:21;;;;;;;26.83;13.37;;;0.20;99.90;;;;;;5135440;27;20054;-74
2021/12/08 08:14:53;;;;;;;9.63;6.83;;;0.20;99.90;;;;;;5135605;27;20494;-72
2021/12/08 08:17:29;;;;;;;18.43;11.23;;;0.30;99.90;;;;;;5141350;27;20055;-73
2021/12/08 08:19:57;;;;;;;29.70;15.33;;;0.30;99.90;;;;;;5139112;27;20047;-74
2021/12/08 08:22:27;;;;;;;22.07;12.33;;;0.30;99.90;;;;;;5136533;27;20093;-77
2021/12/08 08:24:56;;;;;;;25.57;9.27;;;0.30;99.90;;;;;;5136527;27;20043;-74
2021/12/08 08:27:24;;;;;;;17.33;9.47;;;0.30;99.90;;;;;;5136790;27;20076;-74
2021/12/08 08:29:54;;;;;;;19.00;11.23;;;0.20;99.90;;;;;;5139007;27;20043;-74
2021/12/08 08:32:26;;;;;;;14.17;10.47;;;0.20;99.90;;;;;;5137579;27;20044;-74
2021/12/08 08:34:56;;;;;;;14.83;10.23;;;0.20;99.90;;;;;;5131804;27;20057;-73
2021/12/08 08:37:23;;;;;;;14.67;9.07;;;0.20;99.90;;;;;;5132689;27;20047;-73
2021/12/08 08:39:53;;;;;;;21.13;11.83;;;0.10;99.90;;;;;;5132619;27;20052;-73
2021/12/08 08:42:22;;;;;;;18.20;10.97;;;0.10;99.90;;;;;;5133954;27;20055;-76
2021/12/08 08:44:54;;;;;;;17.73;10.97;;;0.10;99.90;;;;;;5135127;27;20043;-76
2021/12/08 08:47:25;;;;;;;16.27;12.03;;;0.20;99.90;;;;;;5134223;27;20058;-75
2021/12/08 08:49:52;;;;;;;24.53;12.77;;;0.30;99.90;;;;;;5136749;27;20092;-75
2021/12/08 08:52:24;;;;;;;16.47;8.60;;;0.30;99.90;;;;;;5133538;27;20051;-77
2021/12/08 08:54:53;;;;;;;20.23;12.60;;;0.20;99.90;;;;;;5134786;27;20043;-77
2021/12/08 08:57:26;;;;;;;20.30;9.37;;;0.20;99.90;;;;;;5132835;27;20043;-78
2021/12/08 08:59:57;;;;;;;16.50;11.97;;;0.20;99.90;;;;;;5134102;27;20043;-78
2021/12/08 09:02:28;;;;;;;27.75;14.10;;;0.30;99.90;;;;;;5132607;27;20111;-73
2021/12/08 09:05:07;;;;;;;17.70;13.55;;;0.30;99.90;;;;;;5131546;27;20104;-77
2021/12/08 09:07:39;;;;;;;14.93;11.40;;;0.40;99.90;;;;;;5135951;27;20066;-75
2021/12/08 09:10:08;;;;;;;;;;;0.30;99.90;;;;;;5136795;27;20122;-73
2021/12/08 09:12:38;;;;;;;20.37;13.40;;;0.30;99.90;;;;;;5136020;27;19919;-73
2021/12/08 09:15:11;;;;;;;21.23;11.57;;;0.30;99.90;;;;;;5135449;27;20043;-72
2021/12/08 09:17:44;;;;;;;16.53;8.73;;;0.30;99.90;;;;;;5136159;27;20050;-74
2021/12/08 09:20:21;;;;;;;24.00;11.93;;;0.30;99.90;;;;;;5135910;27;20120;-72
2021/12/08 09:22:56;;;;;;;22.57;11.07;;;0.30;99.90;;;;;;5136017;27;20053;-74
2021/12/08 09:25:27;;;;;;;17.43;10.27;;;0.30;99.90;;;;;;5135557;27;20047;-76
2021/12/08 09:27:57;;;;;;;;;;;0.30;99.90;;;;;;5136685;27;20054;-76
2021/12/08 09:30:32;;;;;;;12.30;9.77;;;0.40;99.90;;;;;;5136290;27;19964;-74
2021/12/08 09:33:03;;;;;;;22.13;11.77;;;0.50;99.90;;;;;;5135970;27;20054;-76
2021/12/08 09:35:35;;;;;;;22.17;12.27;;;0.50;99.90;;;;;;5135385;27;20112;-77
2021/12/08 09:38:06;;;;;;;16.63;12.23;;;0.50;99.90;;;;;;5135748;27;20043;-74
2021/12/08 09:40:37;;;;;;;15.20;12.45;;;0.60;99.90;;;;;;5136057;27;20039;-74
2021/12/08 09:43:08;;;;;;;19.40;11.13;;;0.60;99.90;;;;;;5135413;27;20127;-74
2021/12/08 09:45:42;;;;;;;26.70;12.35;;;0.60;99.90;;;;;;5135139;27;20043;-74
2021/12/08 09:48:10;;;;;;;19.07;13.00;;;0.60;99.90;;;;;;5135114;27;20043;-74
2021/12/08 09:50:38;;;;;;;31.53;16.40;;;0.70;99.90;;;;;;5135678;27;20043;-74
2021/12/08 09:53:06;;;;;;;22.90;13.77;;;0.70;99.90;;;;;;5135344;27;20043;-73
2021/12/08 09:55:34;;;;;;;24.10;12.43;;;0.70;99.90;;;;;;5134605;27;20092;-73
2021/12/08 09:58:01;;;;;;;32.87;18.77;;;0.80;99.90;;;;;;5135082;27;20078;-76
2021/12/08 10:00:32;;;;;;;27.77;11.37;;;0.90;99.90;;;;;;5136276;27;20047;-76
2021/12/08 10:03:01;;;;;;;28.77;12.93;;;1.00;99.90;;;;;;5136541;27;20043;-79
2021/12/08 10:05:30;;;;;;;13.87;7.77;;;0.90;99.90;;;;;;5135286;27;20089;-77
2021/12/08 10:07:58;;;;;;;16.20;10.37;;;0.90;99.90;;;;;;5135621;27;20066;-77
2021/12/08 10:10:28;;;;;;;27.13;14.20;;;0.80;99.90;;;;;;5142914;27;20055;-80
2021/12/08 10:12:55;;;;;;;27.93;11.77;;;0.90;99.90;;;;;;5146880;27;20506;-79
2021/12/08 10:15:23;;;;;;;24.37;13.10;;;1.10;99.90;;;;;;5144592;27;20047;-72
2021/12/08 10:17:50;;;;;;;25.93;13.33;;;1.10;99.90;;;;;;5134399;27;20077;-78
2021/12/08 10:20:23;;;;;;;29.20;14.13;;;1.20;99.90;;;;;;5135080;27;20047;-80
2021/12/08 10:23:10;;;;;;;26.57;14.87;;;1.30;99.90;;;;;;5114802;27;20048;-73
2021/12/08 10:25:41;;;;;;;18.97;11.30;;;1.60;99.90;;;;;;5116142;28;20495;-77
2021/12/08 10:28:11;;;;;;;14.83;9.37;;;1.50;99.90;;;;;;5114675;28;20408;-75
2021/12/08 10:30:45;;;;;;;25.77;12.87;;;1.60;99.90;;;;;;5114392;28;20138;-76
2021/12/08 10:33:59;;;;;;;27.73;16.57;;;1.50;99.90;;;;;;5114677;28;20055;-79
2021/12/08 10:36:45;;;;;;;27.77;13.27;;;1.50;99.90;;;;;;5103382;27;20070;-77
2021/12/08 10:39:19;;;;;;;27.63;13.03;;;1.90;99.90;;;;;;5115769;28;20085;-75
2021/12/08 10:41:56;;;;;;;18.00;11.60;;;2.20;99.90;;;;;;5114157;27;20047;-77
2021/12/08 10:44:26;;;;;;;23.37;12.80;;;2.20;99.90;;;;;;5115262;28;20499;-82
2021/12/08 10:46:57;;;;;;;25.57;12.50;;;2.10;99.90;;;;;;5122312;28;20407;-80
2021/12/08 10:54:23;;;;;;;20.23;15.00;;;2.10;99.90;;;;;;5117307;28;20077;-77
2021/12/08 10:54:59;;;;;;;18.10;10.17;;;2.40;99.90;;;;;;5112788;28;20054;-73
2021/12/08 10:57:30;;;;;;;18.63;12.77;;;2.70;99.90;;;;;;5113477;28;20104;-72
2021/12/08 11:00:05;;;;;;;17.98;11.77;;;2.80;99.90;;;;;;5113503;28;20434;-74
2021/12/08 11:02:45;;;;;;;19.77;11.87;;;2.50;99.90;;;;;;5113178;28;20040;-74
2021/12/08 11:05:37;;;;;;;15.13;9.87;;;2.20;99.90;;;;;;5112619;28;20419;-73
2021/12/08 11:08:10;;;;;;;27.33;14.05;;;2.50;99.90;;;;;;5113076;28;20502;-73
2021/12/08 11:10:39;;;;;;;22.53;12.30;;;2.60;99.90;;;;;;5113383;28;20093;-73
2021/12/08 11:13:07;;;;;;;25.27;13.33;;;2.60;99.90;;;;;;5113056;28;20047;-74
2021/12/08 11:15:34;;;;;;;24.57;13.27;;;2.40;99.90;;;;;;5112170;28;20039;-75
2021/12/08 11:18:13;;;;;;;21.30;13.43;;;2.20;99.90;;;;;;5113084;28;20552;-73
2021/12/08 11:20:50;;;;;;;20.50;12.97;;;2.20;99.90;;;;;;5112920;28;20044;-74
2021/12/08 11:23:38;;;;;;;24.13;11.93;;;2.10;99.90;;;;;;5113024;28;20130;-73
2021/12/08 11:26:12;;;;;;;18.33;11.50;;;2.20;99.90;;;;;;5112145;28;20081;-73
2021/12/08 11:28:40;;;;;;;22.43;11.43;;;2.50;99.90;;;;;;5112850;28;20043;-73
2021/12/08 11:31:10;;;;;;;22.83;11.83;;;2.60;99.90;;;;;;5112799;28;20120;-72
2021/12/08 11:33:42;;;;;;;17.43;12.77;;;2.60;99.90;;;;;;5112443;28;20051;-75
2021/12/08 11:36:15;;;;;;;15.93;10.48;;;2.50;99.90;;;;;;5112585;28;20130;-76
2021/12/08 11:38:44;;;;;;;21.60;11.90;;;2.30;99.90;;;;;;5112321;28;20117;-74
2021/12/08 11:41:25;;;;;;;21.90;11.97;;;2.20;99.90;;;;;;5112698;28;20047;-74
2021/12/08 11:43:54;;;;;;;17.83;10.02;;;2.30;99.90;;;;;;5112491;28;20568;-73
2021/12/08 11:46:21;;;;;;;13.27;9.53;;;2.30;99.90;;;;;;5111972;28;20453;-75
2021/12/08 11:48:57;;;;;;;25.93;11.30;;;2.30;99.90;;;;;;5112375;28;20047;-74
2021/12/08 11:51:24;;;;;;;25.87;10.67;;;2.20;99.90;;;;;;5112532;28;20047;-74
2021/12/08 11:53:52;;;;;;;14.50;8.47;;;2.20;99.90;;;;;;5112246;28;20048;-75
2021/12/08 11:56:39;;;;;;;17.30;11.07;;;1.90;99.90;;;;;;5112038;28;20116;-74
2021/12/08 11:59:09;;;;;;;25.13;14.97;;;1.70;99.90;;;;;;5112541;28;20043;-74
2021/12/08 12:01:37;;;;;;;22.07;11.50;;;1.70;99.90;;;;;;5112185;28;20096;-77
2021/12/08 12:04:06;;;;;;;24.87;11.93;;;1.70;99.90;;;;;;5112406;28;20149;-74
2021/12/08 12:06:34;;;;;;;22.33;12.53;;;1.60;99.90;;;;;;5111970;28;20479;-76
2021/12/08 12:09:04;;;;;;;20.00;11.57;;;1.60;99.90;;;;;;5112820;28;20048;-74
2021/12/08 12:11:31;;;;;;;29.03;14.73;;;1.50;99.90;;;;;;5112340;28;20100;-72
2021/12/08 12:14:00;;;;;;;31.00;14.30;;;1.50;99.90;;;;;;5111860;28;20097;-73
2021/12/08 12:16:28;;;;;;;19.83;12.93;;;1.50;99.90;;;;;;5112332;28;20112;-71
2021/12/08 12:18:56;;;;;;;28.17;15.00;;;1.50;99.90;;;;;;5112120;28;20043;-71
2021/12/08 12:21:30;;;;;;;19.20;12.17;;;1.50;99.90;;;;;;5112633;28;20048;-71
2021/12/08 12:24:13;;;;;;;16.90;11.73;;;1.40;99.90;;;;;;5111872;28;20039;-73
2021/12/08 12:26:53;;;;;;;30.20;16.70;;;1.40;99.90;;;;;;5111766;28;20097;-75
2021/12/08 12:29:36;;;;;;;26.47;12.63;;;1.30;99.90;;;;;;5111988;28;20058;-74
2021/12/08 12:32:06;;;;;;;18.20;11.70;;;1.40;99.90;;;;;;5112123;28;20051;-73
2021/12/08 12:34:35;;;;;;;21.00;12.00;;;1.50;99.90;;;;;;5111431;28;20039;-75
2021/12/08 12:37:25;;;;;;;26.53;12.77;;;1.50;99.90;;;;;;5111737;28;20521;-71
2021/12/08 12:39:55;;;;;;;25.53;16.17;;;1.60;99.90;;;;;;5111621;28;20487;-71
2021/12/08 12:42:24;;;;;;;23.63;13.00;;;1.70;99.90;;;;;;5115024;28;20105;-73
2021/12/08 12:45:07;;;;;;;20.90;11.40;;;1.80;99.90;;;;;;5115728;27;20040;-73
2021/12/08 12:47:34;;;;;;;27.37;14.70;;;1.80;99.90;;;;;;5116471;28;20047;-78
2021/12/08 12:50:21;;;;;;;27.00;16.20;;;1.90;99.90;;;;;;5117501;27;20112;-77
2021/12/08 12:52:54;;;;;;;22.60;13.97;;;1.90;99.90;;;;;;5116168;27;20067;-78
2021/12/08 12:55:26;;;;;;;13.97;11.10;;;1.90;99.90;;;;;;5115478;27;20101;-77
2021/12/08 12:58:18;;;;;;;25.90;14.80;;;1.80;99.90;;;;;;5115821;28;20097;-76
2021/12/08 13:00:48;;;;;;;22.52;12.20;;;1.80;99.90;;;;;;5115974;28;20384;-75
2021/12/08 13:03:44;;;;;;;20.17;13.57;;;1.70;99.90;;;;;;5115696;28;20450;-76
2021/12/08 13:06:13;;;;;;;27.63;15.57;;;1.60;99.90;;;;;;5115124;28;20047;-75
2021/12/08 13:08:41;;;;;;;19.27;11.97;;;1.50;99.90;;;;;;5115964;28;20047;-76
2021/12/08 13:11:41;;;;;;;32.27;13.23;;;1.50;99.90;;;;;;5116138;28;20050;-77
2021/12/08 13:14:20;;;;;;;17.13;10.07;;;1.30;99.90;;;;;;5115241;28;20057;-77
2021/12/08 13:16:47;;;;;;;24.73;12.10;;;1.30;99.90;;;;;;5115795;28;20051;-78
2021/12/08 13:19:14;;;;;;;28.60;14.73;;;1.20;99.90;;;;;;5115814;28;20040;-79